createdAt,value
2023-03-01T00:01:57.165Z,73.01
2023-03-01T00:04:25.818Z,72.94
2023-03-01T00:06:54.523Z,73.89
2023-03-01T00:09:23.267Z,74.74
2023-03-01T00:11:53.346Z,74.02
2023-03-01T00:14:23.111Z,73.19
2023-03-01T00:16:51.883Z,73.13
2023-03-01T00:19:23.029Z,74.07
2023-03-01T00:21:51.900Z,73.41
2023-03-01T00:24:20.620Z,73.50
2023-03-01T00:26:49.375Z,72.82
2023-03-01T00:29:19.539Z,73.08
2023-03-01T00:31:48.288Z,74.64
2023-03-01T00:34:17.109Z,75.17
2023-03-01T00:36:45.832Z,74.87
2023-03-01T00:39:17.187Z,73.51
2023-03-01T00:41:46.545Z,72.99
2023-03-01T00:44:15.725Z,73.95
2023-03-01T00:46:45.833Z,73.71
2023-03-01T00:49:15.216Z,72.99
2023-03-01T00:51:44.209Z,73.09
2023-03-01T00:54:12.953Z,72.98
2023-03-01T00:56:41.747Z,73.65
2023-03-01T00:59:10.437Z,73.18
2023-03-01T01:01:39.305Z,72.97
2023-03-01T01:04:13.108Z,72.14
2023-03-01T01:06:45.183Z,71.57
2023-03-01T01:09:19.183Z,71.04
2023-03-01T01:11:50.427Z,71.64
2023-03-01T01:14:20.644Z,71.97
2023-03-01T01:16:50.447Z,71.93
2023-03-01T01:19:21.127Z,71.42
2023-03-01T01:21:50.804Z,71.37
2023-03-01T01:24:21.892Z,72.62
2023-03-01T01:26:50.704Z,72.94
2023-03-01T01:29:19.732Z,73.49
2023-03-01T01:31:48.452Z,73.30
2023-03-01T01:34:20.994Z,72.39
2023-03-01T01:36:51.826Z,71.96
2023-03-01T01:39:20.601Z,71.78
2023-03-01T01:41:49.864Z,71.50
2023-03-01T01:44:24.475Z,71.51
2023-03-01T01:47:00.956Z,71.62
2023-03-01T01:49:39.062Z,72.73
2023-03-01T01:52:16.098Z,71.82
2023-03-01T01:54:52.666Z,72.92
2023-03-01T01:57:28.688Z,72.46
2023-03-01T02:00:04.990Z,73.09
2023-03-01T02:02:44.438Z,72.85
2023-03-01T02:05:21.864Z,72.18
2023-03-01T02:07:51.178Z,71.48
2023-03-01T02:10:23.286Z,71.75
2023-03-01T02:12:52.484Z,71.92
2023-03-01T02:15:21.217Z,73.17
2023-03-01T02:17:49.994Z,73.33
2023-03-01T02:20:31.825Z,72.23
2023-03-01T02:23:02.186Z,71.74
2023-03-01T02:25:42.993Z,72.13
2023-03-01T02:28:27.094Z,72.46
2023-03-01T02:31:13.946Z,72.42
2023-03-01T02:33:44.590Z,72.07
2023-03-01T02:36:20.966Z,72.27
2023-03-01T02:38:52.356Z,72.73
2023-03-01T02:41:24.025Z,73.06
2023-03-01T02:43:54.719Z,72.66
2023-03-01T02:46:26.700Z,72.99
2023-03-01T02:48:59.475Z,72.81
2023-03-01T02:51:47.492Z,72.28
2023-03-01T02:54:27.589Z,71.18
2023-03-01T02:56:58.830Z,70.78
2023-03-01T02:59:36.159Z,70.56
2023-03-01T03:02:04.934Z,70.37
2023-03-01T03:04:33.760Z,71.27
2023-03-01T03:07:02.702Z,72.60
2023-03-01T03:09:31.498Z,72.60
2023-03-01T03:12:00.181Z,72.30
2023-03-01T03:14:30.500Z,71.59
2023-03-01T03:16:59.285Z,70.81
2023-03-01T03:19:28.555Z,70.48
2023-03-01T03:21:57.319Z,70.75
2023-03-01T03:24:25.937Z,70.34
2023-03-01T03:26:54.618Z,70.45
2023-03-01T03:29:23.426Z,70.60
2023-03-01T03:31:53.639Z,70.19
2023-03-01T03:34:22.351Z,71.45
2023-03-01T03:36:57.719Z,71.34
2023-03-01T03:39:26.500Z,70.91
2023-03-01T03:41:55.621Z,70.88
2023-03-01T03:44:24.539Z,71.60
2023-03-01T03:46:54.736Z,72.12
2023-03-01T03:49:23.496Z,71.20
2023-03-01T03:51:52.155Z,71.25
2023-03-01T03:54:20.836Z,71.75
2023-03-01T03:56:49.564Z,72.40
2023-03-01T03:59:18.237Z,71.55
2023-03-01T04:01:47.032Z,71.13
2023-03-01T04:04:19.953Z,71.21
2023-03-01T04:06:49.584Z,71.16
2023-03-01T04:09:18.337Z,70.98
2023-03-01T04:11:47.054Z,71.05
2023-03-01T04:14:15.951Z,71.93
2023-03-01T04:16:44.690Z,72.19
2023-03-01T04:19:13.310Z,71.05
2023-03-01T04:21:43.392Z,70.74
2023-03-01T04:24:12.177Z,70.94
2023-03-01T04:26:40.840Z,71.81
2023-03-01T04:29:09.612Z,71.35
2023-03-01T04:31:38.428Z,71.02
2023-03-01T04:34:07.096Z,70.47
2023-03-01T04:36:38.475Z,70.66
2023-03-01T04:39:13.315Z,70.76
2023-03-01T04:41:44.251Z,70.73
2023-03-01T04:44:13.710Z,70.84
2023-03-01T04:46:42.433Z,70.59
2023-03-01T04:49:11.051Z,71.40
2023-03-01T04:51:39.800Z,71.06
2023-03-01T04:54:09.921Z,71.45
2023-03-01T04:56:38.761Z,71.61
2023-03-01T04:59:08.941Z,71.45
2023-03-01T05:01:38.731Z,70.88
2023-03-01T05:04:08.401Z,70.90
2023-03-01T05:06:37.116Z,71.65
2023-03-01T05:09:06.112Z,71.82
2023-03-01T05:11:36.972Z,71.05
2023-03-01T05:14:06.611Z,70.31
2023-03-01T05:16:36.543Z,71.19
2023-03-01T05:19:12.781Z,70.46
2023-03-01T05:22:01.837Z,70.18
2023-03-01T05:24:32.930Z,70.25
2023-03-01T05:27:04.784Z,70.64
2023-03-01T05:29:35.974Z,71.29
2023-03-01T05:32:05.586Z,71.46
2023-03-01T05:34:37.723Z,71.00
2023-03-01T05:37:08.703Z,70.96
2023-03-01T05:39:40.014Z,70.36
2023-03-01T05:42:16.703Z,70.97
2023-03-01T05:44:46.305Z,70.56
2023-03-01T05:47:15.164Z,71.51
2023-03-01T05:49:43.835Z,71.92
2023-03-01T05:52:13.661Z,71.07
2023-03-01T05:54:42.540Z,70.61
2023-03-01T05:57:12.733Z,71.34
2023-03-01T05:59:41.448Z,70.96
2023-03-01T06:02:10.279Z,70.49
2023-03-01T06:04:39.357Z,70.12
2023-03-01T06:07:14.347Z,70.43
2023-03-01T06:09:43.088Z,70.01
2023-03-01T06:12:14.005Z,69.86
2023-03-01T06:14:43.279Z,70.46
2023-03-01T06:17:15.384Z,71.08
2023-03-01T06:19:44.364Z,71.07
2023-03-01T06:22:13.111Z,71.09
2023-03-01T06:24:41.917Z,71.05
2023-03-01T06:27:10.587Z,70.31
2023-03-01T06:29:41.822Z,70.23
2023-03-01T06:32:11.446Z,70.64
2023-03-01T06:34:40.553Z,70.32
2023-03-01T06:37:09.887Z,69.56
2023-03-01T06:39:38.870Z,69.43
2023-03-01T06:42:07.663Z,69.69
2023-03-01T06:44:36.281Z,69.74
2023-03-01T06:47:07.236Z,69.56
2023-03-01T06:49:35.938Z,69.70
2023-03-01T06:52:04.976Z,69.52
2023-03-01T06:54:33.671Z,69.08
2023-03-01T06:57:02.477Z,69.01
2023-03-01T06:59:31.450Z,69.66
2023-03-01T07:02:00.388Z,69.25
2023-03-01T07:04:31.635Z,69.43
2023-03-01T07:07:00.323Z,69.08
2023-03-01T07:09:30.974Z,69.77
2023-03-01T07:12:00.454Z,69.54
2023-03-01T07:14:29.452Z,69.58
2023-03-01T07:16:58.363Z,69.35
2023-03-01T07:19:27.326Z,69.64
2023-03-01T07:21:57.871Z,69.48
2023-03-01T07:24:26.679Z,69.92
2023-03-01T07:26:55.762Z,69.88
2023-03-01T07:29:24.474Z,69.64
2023-03-01T07:31:53.221Z,70.10
2023-03-01T07:34:21.962Z,70.15
2023-03-01T07:36:50.737Z,70.55
2023-03-01T07:39:20.870Z,70.11
2023-03-01T07:41:49.548Z,70.15
2023-03-01T07:44:23.350Z,69.39
2023-03-01T07:46:53.477Z,69.09
2023-03-01T07:49:22.484Z,68.92
2023-03-01T07:51:51.217Z,68.73
2023-03-01T07:54:21.353Z,68.97
2023-03-01T07:56:50.072Z,69.34
2023-03-01T07:59:18.780Z,69.29
2023-03-01T08:01:47.550Z,69.16
2023-03-01T08:04:16.188Z,68.82
2023-03-01T08:06:44.903Z,68.96
2023-03-01T08:09:13.535Z,68.51
2023-03-01T08:11:43.640Z,68.96
2023-03-01T08:14:12.754Z,68.98
2023-03-01T08:16:41.974Z,68.96
2023-03-01T08:19:13.697Z,69.17
2023-03-01T08:21:42.825Z,69.84
2023-03-01T08:24:12.314Z,70.27
2023-03-01T08:26:42.442Z,70.45
2023-03-01T08:29:11.074Z,70.26
2023-03-01T08:31:42.191Z,70.38
2023-03-01T08:34:14.732Z,71.15
2023-03-01T08:36:46.342Z,71.56
2023-03-01T08:39:18.056Z,72.75
2023-03-01T08:41:49.576Z,72.77
2023-03-01T08:44:18.898Z,72.15
2023-03-01T08:46:47.732Z,71.63
2023-03-01T08:49:21.154Z,71.54
2023-03-01T08:51:50.810Z,71.75
2023-03-01T08:54:21.756Z,71.40
2023-03-01T08:56:52.169Z,71.33
2023-03-01T08:59:21.372Z,71.03
2023-03-01T09:01:50.059Z,70.86
2023-03-01T09:04:18.850Z,70.71
2023-03-01T09:06:47.500Z,70.26
2023-03-01T09:09:18.829Z,69.74
2023-03-01T09:11:48.382Z,69.48
2023-03-01T09:14:18.595Z,66.83
2023-03-01T09:16:47.824Z,67.84
2023-03-01T09:19:16.718Z,66.36
2023-03-01T09:21:53.054Z,65.30
2023-03-01T09:24:24.683Z,64.78
2023-03-01T09:26:57.584Z,64.99
2023-03-01T09:29:28.074Z,64.06
2023-03-01T09:31:57.215Z,62.91
2023-03-01T09:34:26.215Z,61.96
2023-03-01T09:36:55.007Z,61.51
2023-03-01T09:39:23.825Z,61.57
2023-03-01T09:42:03.197Z,60.62
2023-03-01T09:44:43.784Z,59.50
2023-03-01T09:47:20.837Z,59.47
2023-03-01T09:50:06.930Z,58.58
2023-03-01T09:52:43.873Z,59.92
2023-03-01T09:55:19.986Z,58.05
2023-03-01T09:57:55.374Z,57.10
2023-03-01T10:00:42.175Z,57.88
2023-03-01T10:03:22.118Z,57.81
2023-03-01T10:06:01.962Z,57.66
2023-03-01T10:08:39.895Z,56.56
2023-03-01T10:11:25.091Z,55.82
2023-03-01T10:14:03.815Z,55.43
2023-03-01T10:16:46.029Z,55.41
2023-03-01T10:19:24.142Z,53.59
2023-03-01T10:21:55.288Z,52.72
2023-03-01T10:24:24.097Z,52.03
2023-03-01T10:26:59.030Z,52.13
2023-03-01T10:29:38.245Z,52.25
2023-03-01T10:32:08.641Z,52.69
2023-03-01T10:34:38.962Z,52.51
2023-03-01T10:37:15.044Z,52.89
2023-03-01T10:40:00.522Z,54.19
2023-03-01T10:42:33.056Z,55.33
2023-03-01T10:45:27.005Z,56.11
2023-03-01T10:48:13.825Z,56.41
2023-03-01T10:50:44.698Z,57.42
2023-03-01T10:53:36.736Z,57.37
2023-03-01T10:56:09.677Z,57.07
2023-03-01T10:58:41.032Z,56.52
2023-03-01T11:01:28.634Z,56.67
2023-03-01T11:04:16.329Z,57.20
2023-03-01T11:06:45.660Z,56.95
2023-03-01T11:09:20.728Z,57.01
2023-03-01T11:11:55.301Z,56.40
2023-03-01T11:14:28.060Z,55.42
2023-03-01T11:17:07.006Z,54.57
2023-03-01T11:19:37.190Z,54.31
2023-03-01T11:22:14.560Z,53.07
2023-03-01T11:24:49.333Z,52.56
2023-03-01T11:27:27.390Z,52.48
2023-03-01T11:30:05.768Z,53.30
2023-03-01T11:32:43.438Z,51.90
2023-03-01T11:35:22.733Z,50.85
2023-03-01T11:38:12.268Z,50.86
2023-03-01T11:40:49.003Z,52.68
2023-03-01T11:43:28.951Z,52.08
2023-03-01T11:46:37.457Z,52.64
2023-03-01T11:49:45.663Z,52.93
2023-03-01T11:52:33.793Z,54.36
2023-03-01T11:55:27.075Z,54.51
2023-03-01T11:58:34.464Z,55.19
2023-03-01T12:01:27.995Z,55.09
2023-03-01T12:04:33.283Z,55.41
2023-03-01T12:07:10.487Z,55.61
2023-03-01T12:10:02.599Z,55.73
2023-03-01T12:12:47.123Z,55.28
2023-03-01T12:15:57.825Z,56.15
2023-03-01T12:19:00.870Z,55.76
2023-03-01T12:21:49.192Z,54.58
2023-03-01T12:24:42.079Z,54.86
2023-03-01T12:27:41.128Z,53.38
2023-03-01T12:30:34.943Z,53.61
2023-03-01T12:33:28.200Z,53.41
2023-03-01T12:36:30.230Z,52.99
2023-03-01T12:39:23.692Z,52.86
2023-03-01T12:42:08.490Z,53.51
2023-03-01T12:45:04.311Z,54.35
2023-03-01T12:47:53.848Z,53.77
2023-03-01T12:50:26.502Z,54.32
2023-03-01T12:52:58.916Z,53.69
2023-03-01T12:55:35.321Z,52.39
2023-03-01T12:58:22.301Z,52.99
2023-03-01T13:01:13.681Z,52.18
2023-03-01T13:04:20.826Z,51.10
2023-03-01T13:07:07.043Z,52.69
2023-03-01T13:09:47.269Z,50.82
2023-03-01T13:13:04.293Z,50.91
2023-03-01T13:15:36.869Z,50.72
2023-03-01T13:18:33.099Z,49.53
2023-03-01T13:21:06.634Z,52.21
2023-03-01T13:23:41.289Z,52.66
2023-03-01T13:26:17.602Z,53.59
2023-03-01T13:29:01.114Z,52.34
2023-03-01T13:32:05.014Z,52.42
2023-03-01T13:34:56.906Z,52.99
2023-03-01T13:37:38.872Z,51.52
2023-03-01T13:41:00.272Z,50.42
2023-03-01T13:43:34.779Z,51.47
2023-03-01T13:46:12.292Z,49.16
2023-03-01T13:48:42.586Z,49.31
2023-03-01T13:51:14.814Z,50.36
2023-03-01T13:53:47.181Z,50.49
2023-03-01T13:56:21.566Z,50.62
2023-03-01T13:58:57.367Z,50.83
2023-03-01T14:01:31.682Z,51.06
2023-03-01T14:04:01.892Z,51.95
2023-03-01T14:06:36.692Z,52.79
2023-03-01T14:13:15.879Z,53.20
2023-03-01T14:16:15.670Z,51.15
2023-03-01T14:18:57.763Z,50.17
2023-03-01T14:21:27.176Z,50.88
2023-03-01T14:23:57.537Z,52.03
2023-03-01T14:26:26.667Z,52.46
2023-03-01T14:28:56.565Z,51.56
2023-03-01T14:31:52.093Z,51.48
2023-03-01T14:34:25.400Z,52.07
2023-03-01T14:36:54.181Z,52.67
2023-03-01T14:39:27.857Z,52.17
2023-03-01T14:42:00.606Z,53.06
2023-03-01T14:44:34.996Z,53.12
2023-03-01T14:47:03.736Z,53.51
2023-03-01T14:49:34.810Z,52.50
2023-03-01T14:52:08.387Z,52.23
2023-03-01T14:54:45.417Z,53.21
2023-03-01T14:57:19.358Z,52.34
2023-03-01T15:04:57.462Z,53.34
2023-03-01T15:07:31.627Z,52.97
2023-03-01T15:10:00.015Z,52.74
2023-03-01T15:12:38.921Z,52.70
2023-03-01T15:15:39.499Z,52.66
2023-03-01T15:18:18.107Z,52.51
2023-03-01T15:24:34.273Z,52.85
2023-03-01T15:27:07.003Z,55.11
2023-03-01T15:29:41.703Z,55.02
2023-03-01T15:32:31.652Z,52.78
2023-03-01T15:35:01.650Z,52.51
2023-03-01T15:37:48.568Z,53.70
2023-03-01T15:40:32.474Z,53.16
2023-03-01T15:43:02.168Z,53.20
2023-03-01T15:45:32.513Z,53.39
2023-03-01T15:48:06.219Z,54.23
2023-03-01T15:50:41.047Z,54.85
2023-03-01T15:53:15.881Z,54.41
2023-03-01T15:55:47.946Z,55.75
2023-03-01T15:58:21.629Z,56.05
2023-03-01T16:01:02.138Z,56.18
2023-03-01T16:03:31.570Z,57.15
2023-03-01T16:06:02.224Z,58.37
2023-03-01T16:08:31.254Z,59.13
2023-03-01T16:11:04.692Z,60.66
2023-03-01T16:13:34.234Z,60.56
2023-03-01T16:16:03.024Z,60.98
2023-03-01T16:18:32.931Z,61.25
2023-03-01T16:21:01.927Z,61.96
2023-03-01T16:23:30.798Z,62.33
2023-03-01T16:26:03.153Z,62.28
2023-03-01T16:28:31.757Z,63.47
2023-03-01T16:31:02.475Z,64.03
2023-03-01T16:33:33.275Z,64.40
2023-03-01T16:36:10.037Z,64.73
2023-03-01T16:38:42.048Z,64.88
2023-03-01T16:41:16.827Z,65.59
2023-03-01T16:43:47.524Z,65.53
2023-03-01T16:46:20.398Z,66.62
2023-03-01T16:48:50.387Z,66.60
2023-03-01T16:51:19.907Z,66.29
2023-03-01T16:53:49.451Z,66.73
2023-03-01T16:56:21.137Z,68.23
2023-03-01T16:58:49.933Z,69.36
2023-03-01T17:01:24.505Z,69.48
2023-03-01T17:03:53.930Z,69.19
2023-03-01T17:06:25.936Z,68.68
2023-03-01T17:08:54.863Z,68.29
2023-03-01T17:11:27.050Z,67.98
2023-03-01T17:13:55.792Z,67.97
2023-03-01T17:16:25.076Z,68.00
2023-03-01T17:18:53.850Z,69.43
2023-03-01T17:21:22.750Z,70.83
2023-03-01T17:23:53.031Z,70.37
2023-03-01T17:26:21.757Z,70.98
2023-03-01T17:28:52.844Z,71.07
2023-03-01T17:31:22.278Z,69.96
2023-03-01T17:33:52.369Z,69.61
2023-03-01T17:36:21.276Z,69.50
2023-03-01T17:38:50.024Z,71.18
2023-03-01T17:41:19.297Z,72.14
2023-03-01T17:43:48.499Z,73.12
2023-03-01T17:46:19.275Z,73.47
2023-03-01T17:48:49.766Z,72.32
2023-03-01T17:51:21.572Z,71.47
2023-03-01T17:53:50.480Z,70.96
2023-03-01T17:56:19.232Z,71.16
2023-03-01T17:58:48.000Z,72.76
2023-03-01T18:01:23.718Z,72.95
2023-03-01T18:03:53.658Z,73.44
2023-03-01T18:06:25.869Z,73.52
2023-03-01T18:08:55.566Z,72.86
2023-03-01T18:11:26.740Z,73.08
2023-03-01T18:13:57.401Z,72.57
2023-03-01T18:16:32.115Z,72.94
2023-03-01T18:19:03.344Z,73.25
2023-03-01T18:21:32.874Z,73.66
2023-03-01T18:24:01.997Z,72.64
2023-03-01T18:26:33.675Z,72.88
2023-03-01T18:29:07.927Z,72.69
2023-03-01T18:31:38.393Z,72.26
2023-03-01T18:34:07.517Z,72.09
2023-03-01T18:36:38.366Z,71.87
2023-03-01T18:39:09.645Z,71.85
2023-03-01T18:41:39.763Z,72.37
2023-03-01T18:44:08.526Z,74.26
2023-03-01T18:46:40.132Z,75.04
2023-03-01T18:49:10.505Z,74.79
2023-03-01T18:51:44.199Z,74.77
2023-03-01T18:54:14.284Z,74.74
2023-03-01T18:56:43.155Z,74.96
2023-03-01T18:59:11.944Z,76.15
2023-03-01T19:01:43.650Z,75.86
2023-03-01T19:04:13.833Z,75.29
2023-03-01T19:07:56.786Z,74.20
2023-03-01T19:10:25.957Z,73.61
2023-03-01T19:12:54.719Z,73.20
2023-03-01T19:15:25.521Z,73.30
2023-03-01T19:17:57.544Z,73.27
2023-03-01T19:20:26.725Z,72.85
2023-03-01T19:22:56.044Z,72.84
2023-03-01T19:25:26.815Z,73.23
2023-03-01T19:27:55.796Z,74.39
2023-03-01T19:30:24.981Z,74.34
2023-03-01T19:32:55.731Z,75.16
2023-03-01T19:35:26.634Z,76.18
2023-03-01T19:38:00.433Z,75.12
2023-03-01T19:40:31.024Z,74.87
2023-03-01T19:43:03.144Z,74.52
2023-03-01T19:45:34.492Z,75.76
2023-03-01T19:48:06.595Z,74.61
2023-03-01T19:50:38.569Z,74.10
2023-03-01T19:53:08.386Z,73.88
2023-03-01T19:55:38.830Z,73.59
2023-03-01T19:58:13.837Z,73.79
2023-03-01T20:00:47.759Z,73.91
2023-03-01T20:03:19.294Z,73.70
2023-03-01T20:05:52.534Z,75.03
2023-03-01T20:08:22.814Z,75.65
2023-03-01T20:10:52.235Z,75.66
2023-03-01T20:13:21.817Z,75.22
2023-03-01T20:15:51.155Z,75.37
2023-03-01T20:18:21.284Z,76.41
2023-03-01T20:20:52.987Z,75.79
2023-03-01T20:23:23.348Z,75.27
2023-03-01T20:25:53.981Z,74.35
2023-03-01T20:28:23.056Z,74.23
2023-03-01T20:30:51.917Z,74.06
2023-03-01T20:33:22.406Z,74.49
2023-03-01T20:35:51.975Z,73.82
2023-03-01T20:38:20.820Z,73.69
2023-03-01T20:40:49.578Z,73.52
2023-03-01T20:43:18.362Z,74.28
2023-03-01T20:45:47.146Z,73.54
2023-03-01T20:48:15.911Z,73.75
2023-03-01T20:50:46.115Z,74.52
2023-03-01T20:53:15.350Z,75.17
2023-03-01T20:55:50.391Z,74.23
2023-03-01T20:58:19.149Z,74.19
2023-03-01T21:00:47.941Z,75.81
2023-03-01T21:03:16.706Z,75.02
2023-03-01T21:05:46.791Z,74.76
2023-03-01T21:08:15.465Z,74.89
2023-03-01T21:10:44.231Z,74.49
2023-03-01T21:13:12.892Z,75.10
2023-03-01T21:15:41.586Z,75.72
2023-03-01T21:18:13.236Z,76.37
2023-03-01T21:20:42.781Z,76.48
2023-03-01T21:23:13.004Z,76.15
2023-03-01T21:25:42.592Z,75.25
2023-03-01T21:28:11.440Z,74.79
2023-03-01T21:30:43.512Z,74.48
2023-03-01T21:33:12.548Z,73.98
2023-03-01T21:35:43.689Z,73.89
2023-03-01T21:38:14.521Z,74.22
2023-03-01T21:40:43.492Z,75.92
2023-03-01T21:43:12.427Z,75.20
2023-03-01T21:45:41.461Z,74.83
2023-03-01T21:48:10.455Z,75.36
2023-03-01T21:50:41.722Z,76.78
2023-03-01T21:53:10.526Z,76.94
2023-03-01T21:55:48.901Z,75.65
2023-03-01T21:58:17.982Z,75.10
2023-03-01T22:00:47.348Z,75.39
2023-03-01T22:03:16.884Z,76.09
2023-03-01T22:05:55.554Z,76.70
2023-03-01T22:08:24.395Z,77.29
2023-03-01T22:10:54.814Z,77.28
2023-03-01T22:13:23.513Z,77.26
2023-03-01T22:15:53.233Z,78.04
2023-03-01T22:18:21.849Z,76.68
2023-03-01T22:20:50.580Z,76.28
2023-03-01T22:23:19.227Z,77.12
2023-03-01T22:25:47.940Z,77.60
2023-03-01T22:28:18.357Z,76.61
2023-03-01T22:30:47.077Z,75.80
2023-03-01T22:33:15.800Z,75.33
2023-03-01T22:35:45.012Z,76.27
2023-03-01T22:38:13.883Z,77.19
2023-03-01T22:40:42.768Z,78.17
2023-03-01T22:43:11.568Z,77.05
2023-03-01T22:45:41.801Z,76.71
2023-03-01T22:48:10.801Z,77.07
2023-03-01T22:50:43.058Z,75.94
2023-03-01T22:53:12.327Z,75.39
2023-03-01T22:55:41.519Z,74.65
2023-03-01T22:58:10.800Z,75.85
2023-03-01T23:00:40.940Z,75.20
2023-03-01T23:03:09.678Z,75.68
2023-03-01T23:05:38.469Z,75.01
2023-03-01T23:08:07.132Z,76.70
2023-03-01T23:10:35.883Z,76.99
2023-03-01T23:13:04.523Z,77.39
2023-03-01T23:15:33.189Z,76.30
2023-03-01T23:18:03.254Z,76.29
2023-03-01T23:20:31.995Z,76.06
2023-03-01T23:23:01.621Z,75.43
2023-03-01T23:25:30.351Z,75.12
2023-03-01T23:27:59.078Z,74.87
2023-03-01T23:30:27.803Z,74.56
2023-03-01T23:32:56.964Z,75.52
2023-03-01T23:35:27.222Z,77.30
2023-03-01T23:37:55.987Z,77.47
2023-03-01T23:40:24.614Z,76.53
2023-03-01T23:42:53.378Z,75.57
2023-03-01T23:45:22.034Z,76.18
2023-03-01T23:47:50.846Z,76.23
2023-03-01T23:50:19.797Z,76.15
2023-03-01T23:52:50.321Z,75.34
2023-03-01T23:55:19.377Z,74.94
2023-03-01T23:57:48.669Z,74.43
